Portada
METAR-TAF:

METAR-TAF

Aeropuertos :

Aeropuerto Internacional Bonriki

Tarawa, Kiribati

latitud: 01-21N, longitud: 172-55E, altitud: 2 m

Observación

El informe se hizo hace 58 minutos, a las 04:00 UTC
Viento 9 kt del este
Temperatura 30°C
Humedad 70%
Presión 1007 hPa
Visibilidad 10 km o más
Escasas nubes a una altura de 2000 ft

METAR: NGTA 010400Z 08009KT 9999 FEW020 30/24 Q1007

Hora: 18:58 (04:58 UTC)

Pronóstico

El informe se hizo hace 5 horas y 36 minutos, a las 23:22 UTC
Pronóstico válido del 01 a las 00 UTC al 01 a las 24 UTC
Viento 12 kt del este
Visibilidad 10 km o más
Escasas nubes a una altura de 1700 ft, Cumulonimbus.
Nubes dispersas a una altura de 2000 ft
Cielo nuboso a una altura de 4500 ft
Probabilidad 30% :
Temporalmente
del 01 a las 00 UTC al 01 a las 12 UTC
Visibilidad: 5000 m
Cielo nuboso a una altura de 1500 ft
tormenta, lluvia

TAF: NGTA 302322Z 0100/0124 09012KT 9999 FEW017CB SCT020 BKN045 PROB30 TEMPO 0100/0112 5000 TSRA BKN015

Observaciones y pronósticos meteorológicos de más de 4000 aeropuertos (mensajes METAR y TAF).

Los puntos amarillos y rojos representan las estaciones disponibles.

Ponga el ratón en el punto deseado para ver el nombre de la estación.

Haga clic para ver las observaciones y los pronósticos meteorológicos.

Para cambiar el mapa : haga clic en los botones verdes con una cruz de color negro para hacer un zoom, en el botón verde con un guión para alejar o en las flechas verdes para mapas adyacentes.


METAR-TAF: